Time;durP1;ratioP1;P1;durP2;ratioP2;P2;SDS_P1;SDS_P2;PMS_P1;PMS_P2;Temp;Humidity;BMP_temperature;BMP_pressure;BME280_temperature;BME280_humidity;BME280_pressure;Samples;Min_cycle;Max_cycle;Signal;HPM_P1;HPM_P2
2023/03/17 00:01:04;;;;;;;6.83;5.60;;;4.80;43.10;;;;;;6234094;28;20514;-59
2023/03/17 00:04:10;;;;;;;7.10;5.13;;;4.70;43.50;;;;;;6249778;28;20478;-59
2023/03/17 00:07:16;;;;;;;9.73;6.47;;;4.60;43.70;;;;;;6251123;28;20475;-59
2023/03/17 00:10:24;;;;;;;8.50;5.23;;;4.60;43.90;;;;;;6250861;28;20980;-59
2023/03/17 00:13:27;;;;;;;5.40;4.90;;;4.60;44.10;;;;;;6250793;28;20479;-59
2023/03/17 00:16:36;;;;;;;5.50;4.87;;;4.50;44.40;;;;;;6250832;28;20832;-58
2023/03/17 00:19:40;;;;;;;7.10;4.90;;;4.50;44.60;;;;;;6250981;28;20478;-58
2023/03/17 00:22:44;;;;;;;7.00;4.73;;;4.40;45.10;;;;;;6250436;28;20478;-59
2023/03/17 00:25:48;;;;;;;6.93;4.60;;;4.40;45.30;;;;;;6226848;28;20975;-58
2023/03/17 00:28:51;;;;;;;5.50;5.00;;;4.30;45.40;;;;;;6240719;28;20486;-58
2023/03/17 00:31:57;;;;;;;6.67;5.03;;;4.30;45.40;;;;;;6230867;28;20475;-58
2023/03/17 00:35:04;;;;;;;5.20;4.00;;;4.30;45.70;;;;;;6251564;28;20853;-60
2023/03/17 00:38:11;;;;;;;5.20;4.37;;;4.30;45.80;;;;;;6250206;28;20559;-60
2023/03/17 00:41:14;;;;;;;8.53;5.00;;;4.30;45.80;;;;;;6250258;28;20889;-62
2023/03/17 00:44:19;;;;;;;6.87;4.37;;;4.30;45.70;;;;;;6249987;28;20451;-65
2023/03/17 00:47:23;;;;;;;5.17;4.10;;;4.20;45.70;;;;;;6250072;28;20549;-63
2023/03/17 00:50:28;;;;;;;3.90;3.50;;;4.20;45.90;;;;;;6249989;28;20443;-62
2023/03/17 00:53:32;;;;;;;3.90;3.47;;;4.20;46.70;;;;;;6249190;28;20466;-62
2023/03/17 00:56:36;;;;;;;5.17;3.40;;;4.20;48.80;;;;;;6249124;28;20823;-61
2023/03/17 00:59:42;;;;;;;5.70;3.90;;;4.20;50.00;;;;;;6249721;28;20493;-62
2023/03/17 01:02:47;;;;;;;4.67;4.20;;;4.20;49.70;;;;;;6249328;28;20494;-63
2023/03/17 01:05:52;;;;;;;7.13;4.30;;;4.10;48.70;;;;;;6250363;28;20486;-63
2023/03/17 01:08:56;;;;;;;5.77;3.63;;;4.10;49.30;;;;;;6250197;28;20471;-62
2023/03/17 01:12:00;;;;;;;4.57;3.67;;;4.10;48.30;;;;;;6248041;28;20482;-62
2023/03/17 01:15:03;;;;;;;7.93;3.90;;;4.00;47.60;;;;;;6245973;28;20475;-61
2023/03/17 01:18:11;;;;;;;4.47;3.87;;;4.00;47.50;;;;;;6248393;28;20498;-61
2023/03/17 01:21:15;;;;;;;4.80;4.27;;;3.90;47.50;;;;;;6248731;28;20475;-62
2023/03/17 01:24:18;;;;;;;6.70;4.00;;;3.90;47.60;;;;;;6247998;28;20486;-62
2023/03/17 01:27:21;;;;;;;5.40;3.90;;;3.90;47.80;;;;;;6248025;28;20992;-62
2023/03/17 01:30:27;;;;;;;4.83;3.97;;;3.80;47.90;;;;;;6241207;28;20483;-62
2023/03/17 01:33:33;;;;;;;4.70;3.60;;;3.90;48.30;;;;;;6243614;28;20937;-62
2023/03/17 01:36:37;;;;;;;5.07;3.80;;;3.80;48.10;;;;;;6248668;28;20567;-61
2023/03/17 01:39:40;;;;;;;3.67;3.33;;;3.80;48.30;;;;;;6247908;28;20478;-62
2023/03/17 01:42:48;;;;;;;5.10;3.93;;;3.70;48.40;;;;;;6248227;28;20474;-62
2023/03/17 01:46:26;;;;;;;4.50;4.10;;;3.60;48.30;;;;;;6248082;28;20601;-62
2023/03/17 01:49:34;;;;;;;5.40;3.90;;;3.60;48.80;;;;;;6225332;28;20561;-62
2023/03/17 01:52:40;;;;;;;3.70;3.30;;;3.60;49.00;;;;;;6224749;28;20495;-61
2023/03/17 01:55:45;;;;;;;4.90;4.50;;;3.60;48.90;;;;;;6224781;28;20775;-61
2023/03/17 01:58:52;;;;;;;3.33;3.03;;;3.60;48.90;;;;;;6224782;28;20472;-61
2023/03/17 02:02:01;;;;;;;5.40;3.47;;;3.50;49.10;;;;;;6226033;28;20472;-61
2023/03/17 02:05:08;;;;;;;5.20;4.43;;;3.50;49.10;;;;;;6225300;28;21000;-61
2023/03/17 02:08:13;;;;;;;4.27;3.80;;;3.50;49.10;;;;;;6224832;28;20523;-61
2023/03/17 02:11:16;;;;;;;5.50;4.20;;;3.50;49.20;;;;;;6226302;28;20459;-61
2023/03/17 02:14:19;;;;;;;5.20;4.70;;;3.50;49.10;;;;;;6224883;28;20530;-61
2023/03/17 02:17:25;;;;;;;4.63;4.20;;;3.50;49.40;;;;;;6224171;28;20929;-61
2023/03/17 02:21:14;;;;;;;7.70;3.87;;;3.40;49.30;;;;;;6224914;28;20435;-62
2023/03/17 02:24:30;;;;;;;4.40;3.97;;;3.40;49.60;;;;;;6224263;28;20468;-62
2023/03/17 02:27:38;;;;;;;4.30;3.90;;;3.30;49.70;;;;;;6229623;28;20472;-61
2023/03/17 02:30:41;;;;;;;8.70;4.43;;;3.30;50.00;;;;;;6229114;28;20475;-61
2023/03/17 02:33:45;;;;;;;11.80;3.77;;;3.30;50.30;;;;;;6228635;28;20480;-61
2023/03/17 02:36:48;;;;;;;3.77;3.47;;;3.30;50.30;;;;;;6228926;28;20476;-62
2023/03/17 02:39:53;;;;;;;7.70;4.60;;;3.30;50.30;;;;;;6229263;28;20497;-61
2023/03/17 02:42:58;;;;;;;5.43;4.83;;;3.40;50.30;;;;;;6229072;28;20843;-61
2023/03/17 02:46:01;;;;;;;5.27;3.70;;;3.30;50.30;;;;;;6228741;28;20768;-61
2023/03/17 02:49:05;;;;;;;8.00;5.47;;;3.30;50.40;;;;;;6228886;28;20482;-61
2023/03/17 02:52:08;;;;;;;5.33;4.30;;;3.30;50.40;;;;;;6228993;28;20583;-61
2023/03/17 02:55:13;;;;;;;4.90;4.00;;;3.30;50.40;;;;;;6228299;28;20647;-61
2023/03/17 02:58:16;;;;;;;4.03;3.60;;;3.30;50.80;;;;;;6228725;28;20555;-61
2023/03/17 03:01:20;;;;;;;5.47;4.67;;;3.30;50.80;;;;;;6228487;28;20479;-61
2023/03/17 03:04:24;;;;;;;4.80;3.60;;;3.30;50.70;;;;;;6228627;28;20820;-61
2023/03/17 03:07:28;;;;;;;5.50;3.67;;;3.30;50.90;;;;;;6228301;28;20535;-61
2023/03/17 03:10:32;;;;;;;3.67;3.37;;;3.30;51.00;;;;;;6228598;28;20464;-61
2023/03/17 03:13:36;;;;;;;4.37;3.53;;;3.30;50.50;;;;;;6228753;28;20491;-61
2023/03/17 03:16:39;;;;;;;4.30;3.43;;;3.30;50.40;;;;;;6228358;28;20486;-61
2023/03/17 03:19:43;;;;;;;3.57;3.27;;;3.30;50.40;;;;;;6228213;28;20487;-61
2023/03/17 03:22:47;;;;;;;5.37;4.30;;;3.30;50.50;;;;;;6228074;28;20486;-61
2023/03/17 03:25:51;;;;;;;4.17;3.77;;;3.30;51.10;;;;;;6227660;28;20483;-61
2023/03/17 03:28:56;;;;;;;4.37;3.77;;;3.30;51.20;;;;;;6227990;28;20472;-61
2023/03/17 03:31:59;;;;;;;8.60;4.70;;;3.20;51.40;;;;;;6227997;28;20487;-61
2023/03/17 03:35:03;;;;;;;8.60;5.17;;;3.20;51.70;;;;;;6228094;28;20483;-61
2023/03/17 03:38:06;;;;;;;5.93;4.23;;;3.20;51.70;;;;;;6227851;28;20486;-61
2023/03/17 03:41:11;;;;;;;5.57;4.43;;;3.10;51.50;;;;;;6227495;28;20816;-61
2023/03/17 03:44:15;;;;;;;4.20;3.83;;;3.10;51.60;;;;;;6227502;28;20471;-61
2023/03/17 03:47:18;;;;;;;5.43;3.93;;;3.00;51.80;;;;;;6227187;28;20793;-59
2023/03/17 03:50:22;;;;;;;7.03;4.60;;;3.00;51.80;;;;;;6227494;28;20448;-61
2023/03/17 03:53:26;;;;;;;8.07;4.97;;;3.10;51.80;;;;;;6227205;28;20957;-60
2023/03/17 03:56:31;;;;;;;9.17;4.50;;;3.10;51.80;;;;;;6227988;28;20819;-60
2023/03/17 03:59:34;;;;;;;5.83;4.13;;;3.00;51.80;;;;;;6228224;28;20464;-60
2023/03/17 04:02:37;;;;;;;5.00;4.50;;;3.00;52.20;;;;;;6227575;28;20559;-66
2023/03/17 04:05:41;;;;;;;6.37;5.77;;;3.00;52.20;;;;;;6227357;28;20475;-61
2023/03/17 04:08:44;;;;;;;4.67;4.20;;;2.90;52.20;;;;;;6227172;28;20468;-61
2023/03/17 04:11:49;;;;;;;7.83;4.20;;;2.90;52.20;;;;;;6227284;28;20575;-61
2023/03/17 04:14:52;;;;;;;5.13;3.97;;;2.90;52.20;;;;;;6226835;28;20751;-60
2023/03/17 04:17:55;;;;;;;6.13;4.23;;;2.90;52.20;;;;;;6227284;28;20468;-60
2023/03/17 04:20:59;;;;;;;5.40;3.50;;;2.90;52.10;;;;;;6227017;28;20478;-60
2023/03/17 04:24:03;;;;;;;5.60;4.03;;;2.90;52.20;;;;;;6227063;28;20467;-60
2023/03/17 04:27:09;;;;;;;5.40;4.50;;;2.90;52.30;;;;;;6226309;28;20476;-60
2023/03/17 04:30:15;;;;;;;7.13;4.40;;;2.80;52.20;;;;;;6226442;28;20472;-61
2023/03/17 04:33:19;;;;;;;5.20;3.93;;;2.90;52.80;;;;;;6226304;28;20483;-61
2023/03/17 04:36:23;;;;;;;5.57;4.27;;;2.80;52.70;;;;;;6226563;28;20484;-61
2023/03/17 04:39:27;;;;;;;3.90;3.60;;;2.80;52.80;;;;;;6226316;28;20824;-61
2023/03/17 04:42:32;;;;;;;5.80;4.20;;;2.80;52.90;;;;;;6226930;28;20472;-60
2023/03/17 04:45:36;;;;;;;5.13;4.40;;;2.80;52.90;;;;;;6221893;28;20472;-60
2023/03/17 04:48:40;;;;;;;4.33;3.93;;;2.80;53.10;;;;;;6225547;28;20598;-60
2023/03/17 04:51:43;;;;;;;6.00;4.63;;;2.80;53.00;;;;;;6226517;28;20475;-60
2023/03/17 04:54:46;;;;;;;9.03;4.40;;;2.80;53.10;;;;;;6225769;28;20498;-60
2023/03/17 04:57:51;;;;;;;5.87;4.03;;;2.70;53.20;;;;;;6226131;28;20542;-60
2023/03/17 05:00:54;;;;;;;4.83;4.43;;;2.70;53.50;;;;;;6225763;28;20471;-62
2023/03/17 05:03:57;;;;;;;5.20;4.70;;;2.70;53.50;;;;;;6226537;28;20459;-61
2023/03/17 05:07:01;;;;;;;7.23;4.97;;;2.70;53.60;;;;;;6226263;28;20468;-61
2023/03/17 05:10:05;;;;;;;8.70;5.50;;;2.70;53.70;;;;;;6226144;28;20522;-61
2023/03/17 05:13:10;;;;;;;9.10;4.87;;;2.70;53.90;;;;;;6225568;28;20475;-61
2023/03/17 05:16:13;;;;;;;7.53;4.90;;;2.70;53.70;;;;;;6225562;28;20479;-61
2023/03/17 05:19:17;;;;;;;8.00;5.30;;;2.60;53.80;;;;;;6225666;28;20483;-61
2023/03/17 05:22:20;;;;;;;9.90;5.27;;;2.70;53.80;;;;;;6225627;28;20816;-61
2023/03/17 05:25:23;;;;;;;10.63;5.10;;;2.60;53.70;;;;;;6225745;28;20476;-61
2023/03/17 05:28:28;;;;;;;8.50;6.23;;;2.60;54.00;;;;;;6225587;28;20495;-61
2023/03/17 05:31:31;;;;;;;5.53;4.53;;;2.70;54.00;;;;;;6225526;28;20476;-60
2023/03/17 05:34:35;;;;;;;9.10;5.50;;;2.70;54.20;;;;;;6225387;28;20487;-60
2023/03/17 05:37:38;;;;;;;7.17;5.97;;;2.70;54.00;;;;;;6224815;28;20476;-60
2023/03/17 05:40:42;;;;;;;5.43;4.93;;;2.80;54.00;;;;;;6225028;28;20484;-60
2023/03/17 05:43:46;;;;;;;6.13;4.57;;;2.80;54.00;;;;;;6225421;28;20476;-60
2023/03/17 05:46:50;;;;;;;6.97;4.87;;;2.80;54.10;;;;;;6224954;28;20825;-60
2023/03/17 05:49:53;;;;;;;5.43;4.93;;;2.80;54.20;;;;;;6221079;28;20937;-60
2023/03/17 05:52:56;;;;;;;6.47;5.60;;;2.80;54.50;;;;;;6224837;28;20475;-61
2023/03/17 05:55:59;;;;;;;8.13;5.10;;;2.90;54.60;;;;;;6224525;28;20492;-60
2023/03/17 05:59:04;;;;;;;6.50;4.87;;;2.90;54.50;;;;;;6224477;28;20491;-60
2023/03/17 06:02:07;;;;;;;6.43;4.90;;;3.00;54.30;;;;;;6224619;28;20468;-61
2023/03/17 06:05:11;;;;;;;6.40;5.57;;;3.10;54.30;;;;;;6224447;28;20472;-61
2023/03/17 06:08:14;;;;;;;8.03;5.83;;;3.20;54.20;;;;;;6224763;28;20463;-61
2023/03/17 06:11:19;;;;;;;7.77;4.63;;;3.30;54.00;;;;;;6224856;28;20448;-61
2023/03/17 06:14:24;;;;;;;10.17;6.00;;;3.30;53.40;;;;;;6224762;28;20544;-61
2023/03/17 06:17:29;;;;;;;7.27;6.57;;;3.50;53.00;;;;;;6224811;28;20436;-61
2023/03/17 06:20:32;;;;;;;5.63;5.10;;;3.50;52.60;;;;;;6224388;28;20778;-61
2023/03/17 06:23:36;;;;;;;9.77;6.20;;;3.60;52.50;;;;;;6224439;28;20459;-61
2023/03/17 06:26:39;;;;;;;5.77;5.17;;;3.70;52.60;;;;;;6224689;28;20960;-62
2023/03/17 06:29:43;;;;;;;7.20;4.93;;;3.80;52.50;;;;;;6224783;28;20464;-61
2023/03/17 06:32:47;;;;;;;9.70;5.87;;;3.90;52.20;;;;;;6224640;28;20468;-61
2023/03/17 06:35:50;;;;;;;9.77;6.30;;;4.00;52.00;;;;;;6229975;28;21008;-61
2023/03/17 06:38:53;;;;;;;8.80;5.33;;;4.10;52.00;;;;;;6227208;28;20805;-61
2023/03/17 06:41:57;;;;;;;7.90;5.40;;;4.20;51.90;;;;;;6224785;28;20850;-61
2023/03/17 06:45:02;;;;;;;7.30;5.43;;;4.40;51.40;;;;;;6224112;28;20476;-61
2023/03/17 06:48:06;;;;;;;10.67;9.03;;;4.70;51.30;;;;;;6224563;28;20482;-62
2023/03/17 06:51:09;;;;;;;11.90;8.13;;;5.00;50.50;;;;;;6224231;28;20475;-62
2023/03/17 06:54:13;;;;;;;8.00;6.30;;;5.30;49.80;;;;;;6224306;28;20472;-62
2023/03/17 06:57:16;;;;;;;6.00;5.40;;;5.50;49.00;;;;;;6223733;28;20732;-61
2023/03/17 07:00:22;;;;;;;9.50;5.67;;;5.80;48.30;;;;;;6224532;28;20468;-62
2023/03/17 07:03:26;;;;;;;7.13;6.17;;;6.20;48.40;;;;;;6224130;28;20479;-62
2023/03/17 07:06:30;;;;;;;6.23;5.07;;;6.50;46.90;;;;;;6223675;28;20463;-60
2023/03/17 07:09:34;;;;;;;10.60;5.60;;;6.90;45.90;;;;;;6224218;28;20464;-60
2023/03/17 07:12:37;;;;;;;7.40;6.00;;;7.40;45.50;;;;;;6226795;28;20463;-61
2023/03/17 07:15:44;;;;;;;8.43;4.90;;;7.90;43.60;;;;;;6228451;28;20484;-61
2023/03/17 07:18:47;;;;;;;5.80;4.93;;;8.70;42.10;;;;;;6228395;28;20774;-61
2023/03/17 07:21:50;;;;;;;8.00;5.10;;;9.90;40.70;;;;;;6228180;28;20476;-61
2023/03/17 07:24:54;;;;;;;5.70;5.20;;;10.90;37.10;;;;;;6228148;28;20556;-61
2023/03/17 07:27:57;;;;;;;6.63;4.47;;;11.70;34.80;;;;;;6228232;28;20479;-61
2023/03/17 07:31:02;;;;;;;6.63;4.07;;;12.20;33.00;;;;;;6227922;28;20483;-61
2023/03/17 07:34:06;;;;;;;5.20;4.70;;;12.60;32.50;;;;;;6228231;28;21036;-61
2023/03/17 07:37:11;;;;;;;5.80;4.80;;;12.90;31.30;;;;;;6246897;28;20475;-61
2023/03/17 07:40:14;;;;;;;7.77;5.23;;;13.00;30.90;;;;;;6251486;28;20478;-61
2023/03/17 07:43:18;;;;;;;6.83;5.57;;;13.20;30.50;;;;;;6249765;28;20474;-61
2023/03/17 07:46:23;;;;;;;5.80;5.20;;;13.30;30.00;;;;;;6251773;28;20475;-61
2023/03/17 07:49:27;;;;;;;5.30;4.80;;;13.20;29.90;;;;;;6251432;28;20533;-62
2023/03/17 07:52:43;;;;;;;8.00;5.20;;;12.90;30.10;;;;;;6248960;28;20613;-62
2023/03/17 07:55:47;;;;;;;7.23;5.17;;;12.80;30.90;;;;;;6250592;28;20482;-61
2023/03/17 07:58:50;;;;;;;13.40;7.03;;;12.50;30.80;;;;;;6243432;28;20944;-61
2023/03/17 08:01:56;;;;;;;6.77;6.10;;;12.40;31.30;;;;;;6252056;28;20482;-60
2023/03/17 08:05:00;;;;;;;6.53;5.20;;;12.00;31.70;;;;;;6251721;28;20482;-61
2023/03/17 08:08:05;;;;;;;10.63;6.40;;;11.70;32.00;;;;;;6251995;28;20470;-61
2023/03/17 08:11:09;;;;;;;9.13;5.87;;;11.30;32.50;;;;;;6251758;28;20467;-61
2023/03/17 08:14:12;;;;;;;7.43;6.17;;;11.00;32.60;;;;;;6252302;28;20477;-60
2023/03/17 08:17:17;;;;;;;7.83;5.67;;;11.10;33.80;;;;;;6251816;28;21192;-60
2023/03/17 08:20:21;;;;;;;7.90;5.70;;;10.90;33.20;;;;;;6252467;28;20447;-61
2023/03/17 08:23:25;;;;;;;8.30;5.93;;;11.30;33.40;;;;;;6250381;28;20451;-61
2023/03/17 08:26:28;;;;;;;8.80;6.80;;;11.70;32.50;;;;;;6251396;28;20459;-61
2023/03/17 08:29:32;;;;;;;11.47;7.17;;;12.00;32.10;;;;;;6251362;28;21049;-60
2023/03/17 08:32:37;;;;;;;8.93;8.00;;;12.80;31.40;;;;;;6251512;28;20458;-61
2023/03/17 08:35:40;;;;;;;9.00;7.27;;;13.00;30.40;;;;;;6251270;28;20467;-61
2023/03/17 08:38:45;;;;;;;7.80;7.07;;;13.20;30.90;;;;;;6251438;28;20532;-61
2023/03/17 08:41:48;;;;;;;8.77;7.90;;;13.70;30.10;;;;;;6251415;28;20474;-61
2023/03/17 08:44:51;;;;;;;7.83;6.63;;;15.00;29.20;;;;;;6251271;28;20479;-61
2023/03/17 08:47:56;;;;;;;9.53;6.60;;;17.00;27.60;;;;;;6250980;28;20478;-61
2023/03/17 08:50:59;;;;;;;10.70;7.87;;;19.60;25.90;;;;;;6250868;28;20467;-61
2023/03/17 08:54:04;;;;;;;10.20;8.43;;;21.20;24.10;;;;;;6242243;28;20225;-63
2023/03/17 08:57:07;;;;;;;11.00;7.93;;;22.30;22.30;;;;;;6236333;28;20255;-62
2023/03/17 09:00:12;;;;;;;8.47;7.63;;;24.00;21.60;;;;;;6229438;28;20587;-62
2023/03/17 09:03:17;;;;;;;9.27;8.47;;;26.30;19.30;;;;;;6225913;28;20243;-63
2023/03/17 09:06:21;;;;;;;8.40;7.70;;;25.60;18.20;;;;;;6226450;28;20586;-63
2023/03/17 09:09:24;;;;;;;9.30;8.50;;;26.60;16.70;;;;;;6231701;28;20653;-64
2023/03/17 09:12:27;;;;;;;9.37;8.43;;;27.50;16.90;;;;;;6249556;28;20242;-66
2023/03/17 09:15:32;;;;;;;8.13;7.43;;;28.60;15.60;;;;;;6248977;28;20561;-62
2023/03/17 09:18:37;;;;;;;8.60;7.70;;;29.50;14.70;;;;;;6249715;28;20216;-62
2023/03/17 09:21:41;;;;;;;9.17;8.17;;;30.80;14.00;;;;;;6248708;28;20223;-62
2023/03/17 09:24:44;;;;;;;10.40;7.55;;;30.90;13.50;;;;;;6249363;28;20227;-62
2023/03/17 09:27:48;;;;;;;8.38;7.57;;;31.40;13.10;;;;;;6248938;28;20692;-65
2023/03/17 09:30:51;;;;;;;8.68;7.78;;;32.70;12.10;;;;;;6234354;28;20234;-63
2023/03/17 09:33:56;;;;;;;7.90;7.15;;;32.80;11.70;;;;;;6249530;28;20228;-67
2023/03/17 09:36:59;;;;;;;13.30;8.23;;;33.80;11.30;;;;;;6249195;28;20280;-64
2023/03/17 09:40:07;;;;;;;7.70;7.05;;;34.90;10.60;;;;;;6249788;28;20231;-64
2023/03/17 09:43:23;;;;;;;6.93;6.32;;;35.30;9.90;;;;;;6249501;28;20227;-63
2023/03/17 09:46:39;;;;;;;21.40;9.65;;;36.10;10.00;;;;;;6248992;28;20235;-65
2023/03/17 09:49:47;;;;;;;7.40;6.80;;;37.00;9.20;;;;;;6249066;28;20686;-64
2023/03/17 09:52:52;;;;;;;9.18;8.20;;;36.10;9.20;;;;;;6248642;28;20231;-63
2023/03/17 09:55:58;;;;;;;15.05;8.30;;;36.10;9.30;;;;;;6248461;28;20677;-64
2023/03/17 09:59:07;;;;;;;6.95;6.25;;;35.30;9.20;;;;;;6249482;28;20231;-63
2023/03/17 10:02:19;;;;;;;6.28;5.88;;;35.10;9.10;;;;;;6249054;28;20231;-65
2023/03/17 10:05:26;;;;;;;7.50;6.75;;;34.60;8.70;;;;;;6224835;28;20242;-64
2023/03/17 10:08:33;;;;;;;9.52;6.63;;;33.20;9.80;;;;;;6224946;28;20219;-63
2023/03/17 10:11:41;;;;;;;7.05;6.45;;;34.20;9.50;;;;;;6225150;28;20528;-63
2023/03/17 10:14:56;;;;;;;10.15;7.15;;;34.20;9.10;;;;;;6225336;28;20678;-65
2023/03/17 10:18:01;;;;;;;8.50;7.65;;;33.50;9.50;;;;;;6239468;28;20250;-63
2023/03/17 10:21:11;;;;;;;7.82;6.75;;;32.90;10.00;;;;;;6249012;28;20346;-65
2023/03/17 10:24:15;;;;;;;7.90;7.20;;;33.40;10.60;;;;;;6243034;28;20571;-64
2023/03/17 10:27:18;;;;;;;7.68;6.82;;;32.30;10.20;;;;;;6222430;28;20235;-63
2023/03/17 10:30:23;;;;;;;7.68;6.75;;;31.30;10.80;;;;;;6223592;28;20224;-63
2023/03/17 10:33:26;;;;;;;7.10;6.40;;;30.60;11.20;;;;;;6223651;28;20224;-63
2023/03/17 10:36:36;;;;;;;13.07;11.87;;;29.50;12.00;;;;;;6223337;28;20235;-64
2023/03/17 10:39:45;;;;;;;19.20;17.60;;;27.50;13.10;;;;;;6224967;28;20306;-62
2023/03/17 10:42:52;;;;;;;8.70;8.00;;;27.40;13.40;;;;;;6238542;28;20665;-62
2023/03/17 10:45:59;;;;;;;8.32;7.70;;;30.00;12.30;;;;;;6249316;28;20235;-62
2023/03/17 10:49:08;;;;;;;8.82;8.10;;;31.50;11.50;;;;;;6253116;28;20239;-62
2023/03/17 10:52:19;;;;;;;47.55;43.53;;;33.90;10.40;;;;;;6253199;28;20258;-62
2023/03/17 10:55:26;;;;;;;12.40;11.50;;;35.90;9.40;;;;;;6249932;28;20281;-62
2023/03/17 10:58:37;;;;;;;9.90;9.10;;;36.10;8.80;;;;;;6241483;28;20227;-62
2023/03/17 11:01:44;;;;;;;6.35;5.82;;;37.50;8.50;;;;;;6253044;28;20566;-62
2023/03/17 11:04:48;;;;;;;7.38;5.93;;;38.20;7.80;;;;;;6246983;28;20243;-62
2023/03/17 11:07:57;;;;;;;6.63;5.57;;;36.90;7.90;;;;;;6253999;28;20572;-61
2023/03/17 11:11:04;;;;;;;5.90;5.40;;;32.80;9.70;;;;;;6243894;28;20254;-61
2023/03/17 11:14:12;;;;;;;5.60;5.20;;;34.00;9.50;;;;;;6231298;28;20662;-61
2023/03/17 11:17:19;;;;;;;5.55;5.03;;;34.80;8.50;;;;;;6228252;28;20243;-62
2023/03/17 11:20:36;;;;;;;6.20;5.72;;;33.80;9.50;;;;;;6228218;28;20232;-62
2023/03/17 11:23:51;;;;;;;4.57;4.18;;;35.60;8.50;;;;;;6228046;28;20250;-62
2023/03/17 11:27:00;;;;;;;5.68;5.18;;;35.50;7.60;;;;;;6228150;28;20228;-63
2023/03/17 11:30:17;;;;;;;5.22;4.72;;;33.90;8.80;;;;;;6240795;28;20228;-61
2023/03/17 11:33:33;;;;;;;4.13;3.80;;;34.50;8.40;;;;;;6252067;28;20231;-63
2023/03/17 11:36:49;;;;;;;5.10;4.60;;;35.10;7.80;;;;;;6251590;28;20224;-62
2023/03/17 11:40:03;;;;;;;5.63;5.13;;;35.50;7.60;;;;;;6252803;28;20544;-62
2023/03/17 11:43:26;;;;;;;5.72;5.22;;;35.50;7.80;;;;;;6253051;28;20240;-63
2023/03/17 11:46:35;;;;;;;5.07;4.30;;;34.20;8.10;;;;;;6251835;28;20544;-62
2023/03/17 11:49:40;;;;;;;5.10;4.70;;;33.60;8.40;;;;;;6252594;28;20232;-61
2023/03/17 11:52:58;;;;;;;5.03;4.63;;;33.20;8.50;;;;;;6252238;28;20227;-61
2023/03/17 11:56:09;;;;;;;4.88;4.47;;;32.70;8.80;;;;;;6250465;28;20320;-61
2023/03/17 11:59:30;;;;;;;4.55;4.15;;;32.20;9.20;;;;;;6249777;28;20236;-63
2023/03/17 12:02:41;;;;;;;5.68;5.18;;;34.00;9.00;;;;;;6248515;28;20222;-65
2023/03/17 12:05:49;;;;;;;5.38;4.93;;;34.90;8.10;;;;;;6225780;28;20678;-66
2023/03/17 12:08:58;;;;;;;4.85;4.38;;;34.80;7.80;;;;;;6226838;28;20266;-63
2023/03/17 12:12:04;;;;;;;7.32;5.07;;;34.00;8.00;;;;;;6222757;28;20244;-64
2023/03/17 12:15:19;;;;;;;5.35;4.82;;;33.40;8.60;;;;;;6226906;28;20291;-64
2023/03/17 12:18:29;;;;;;;5.20;4.80;;;35.60;8.00;;;;;;6239985;28;20238;-65
2023/03/17 12:21:37;;;;;;;10.43;5.90;;;36.80;7.80;;;;;;6251064;28;20234;-63
2023/03/17 12:24:47;;;;;;;5.88;5.38;;;36.80;7.60;;;;;;6251229;28;20232;-64
2023/03/17 12:27:59;;;;;;;6.53;5.93;;;37.40;7.20;;;;;;6251343;28;20681;-64
2023/03/17 12:31:05;;;;;;;6.32;5.82;;;35.10;7.90;;;;;;6251507;28;20238;-64
2023/03/17 12:34:15;;;;;;;7.20;6.55;;;36.10;7.80;;;;;;6251057;28;20681;-63
2023/03/17 12:37:20;;;;;;;9.82;7.00;;;33.30;8.50;;;;;;6236053;28;20239;-64
2023/03/17 12:40:28;;;;;;;6.93;6.32;;;34.40;8.70;;;;;;6225966;28;20574;-62
2023/03/17 12:43:48;;;;;;;7.15;6.50;;;33.90;8.90;;;;;;6226531;28;20228;-64
2023/03/17 12:47:28;;;;;;;7.90;6.40;;;35.50;8.40;;;;;;6225789;28;20243;-63
2023/03/17 12:51:05;;;;;;;7.28;6.57;;;35.60;8.50;;;;;;6226196;28;20224;-64
2023/03/17 12:54:15;;;;;;;7.40;6.80;;;35.00;8.40;;;;;;6240604;28;20289;-63
2023/03/17 12:57:21;;;;;;;7.75;7.05;;;36.20;8.50;;;;;;6249785;28;20595;-64
2023/03/17 13:00:28;;;;;;;8.07;7.47;;;35.30;8.30;;;;;;6250689;28;20227;-65
2023/03/17 13:03:35;;;;;;;7.22;6.63;;;35.00;8.80;;;;;;6248656;28;20591;-62
2023/03/17 13:06:43;;;;;;;10.45;7.80;;;35.60;8.70;;;;;;6249660;28;20228;-63
2023/03/17 13:09:49;;;;;;;8.35;7.57;;;37.20;8.00;;;;;;6249483;28;20227;-63
2023/03/17 13:13:04;;;;;;;8.35;7.65;;;37.80;7.70;;;;;;6251615;28;20219;-64
2023/03/17 13:16:27;;;;;;;7.03;6.50;;;38.30;7.50;;;;;;6251554;28;20309;-62
2023/03/17 13:19:32;;;;;;;7.88;7.25;;;37.90;7.40;;;;;;6245695;28;20235;-62
2023/03/17 13:22:37;;;;;;;8.15;7.15;;;38.90;7.30;;;;;;6235126;28;20235;-62
2023/03/17 13:25:52;;;;;;;8.27;7.55;;;39.40;7.10;;;;;;6225991;28;20236;-64
2023/03/17 13:29:02;;;;;;;6.68;6.03;;;39.40;6.70;;;;;;6228857;28;20357;-64
2023/03/17 13:32:36;;;;;;;7.18;6.47;;;39.10;6.70;;;;;;6250300;28;20236;-64
2023/03/17 13:35:42;;;;;;;6.72;6.22;;;37.90;7.30;;;;;;6250191;28;20228;-64
2023/03/17 13:39:14;;;;;;;6.32;5.72;;;37.30;7.30;;;;;;6249702;28;20235;-62
2023/03/17 13:42:34;;;;;;;6.25;5.75;;;35.60;8.00;;;;;;6249900;28;20237;-61
2023/03/17 13:45:38;;;;;;;6.78;6.18;;;32.80;8.90;;;;;;6249726;28;20244;-65
2023/03/17 13:48:43;;;;;;;6.17;5.67;;;29.30;10.90;;;;;;6249109;28;20696;-63
2023/03/17 13:51:51;;;;;;;6.53;5.37;;;26.80;12.30;;;;;;6249557;28;20235;-64
2023/03/17 13:55:24;;;;;;;8.23;5.07;;;24.80;13.30;;;;;;6249399;28;20314;-61
2023/03/17 13:58:34;;;;;;;5.70;5.20;;;22.30;14.70;;;;;;6248501;28;20235;-62
2023/03/17 14:01:42;;;;;;;6.60;6.00;;;20.30;16.30;;;;;;6249240;28;20239;-64
2023/03/17 14:04:52;;;;;;;5.80;5.27;;;19.00;17.20;;;;;;6247743;28;20232;-64
2023/03/17 14:07:58;;;;;;;5.23;4.73;;;18.40;18.20;;;;;;6249796;28;20228;-63
2023/03/17 14:11:06;;;;;;;4.93;4.50;;;18.10;18.10;;;;;;6249020;28;20239;-61
2023/03/17 14:14:22;;;;;;;7.10;5.20;;;17.90;18.30;;;;;;6248362;28;20216;-60
2023/03/17 14:17:41;;;;;;;6.73;4.87;;;17.80;18.60;;;;;;6249640;28;20240;-60
2023/03/17 14:20:55;;;;;;;5.83;4.90;;;17.50;18.90;;;;;;6240435;28;20237;-61
2023/03/17 14:24:00;;;;;;;6.80;5.93;;;16.90;19.60;;;;;;6254211;28;20479;-61
2023/03/17 14:27:07;;;;;;;10.80;8.37;;;16.80;20.10;;;;;;6253498;28;20482;-61
2023/03/17 14:30:19;;;;;;;7.30;5.30;;;16.50;20.30;;;;;;6254328;28;20236;-61
2023/03/17 14:33:25;;;;;;;6.73;4.90;;;16.50;20.40;;;;;;6254151;28;20471;-60
2023/03/17 14:36:33;;;;;;;9.07;6.93;;;16.30;20.80;;;;;;6253976;28;20827;-61
2023/03/17 14:39:44;;;;;;;5.00;4.50;;;16.10;21.00;;;;;;6254030;28;20467;-60
2023/03/17 14:42:48;;;;;;;8.50;5.83;;;16.10;21.20;;;;;;6253532;28;20956;-60
2023/03/17 14:45:52;;;;;;;5.73;5.20;;;16.10;21.60;;;;;;6253871;28;20991;-61
2023/03/17 14:49:00;;;;;;;7.53;5.97;;;16.10;21.80;;;;;;6254528;28;20605;-61
2023/03/17 14:52:05;;;;;;;7.77;5.10;;;15.80;22.00;;;;;;6254449;28;20482;-61
2023/03/17 14:55:13;;;;;;;6.20;5.60;;;15.70;22.00;;;;;;6253088;28;20486;-61
2023/03/17 14:58:24;;;;;;;8.17;5.53;;;15.60;22.40;;;;;;6253182;28;20483;-61
2023/03/17 15:01:36;;;;;;;8.33;6.13;;;15.60;22.20;;;;;;6253426;28;20490;-60
2023/03/17 15:04:51;;;;;;;5.80;5.20;;;15.50;22.20;;;;;;6233586;28;20460;-61
2023/03/17 15:07:56;;;;;;;6.00;5.00;;;15.30;22.50;;;;;;6229245;28;20535;-60
2023/03/17 15:11:00;;;;;;;7.57;5.60;;;15.00;22.90;;;;;;6228695;28;20471;-60
2023/03/17 15:14:11;;;;;;;7.93;5.13;;;14.90;23.10;;;;;;6228829;28;20472;-60
2023/03/17 15:17:18;;;;;;;5.90;5.33;;;15.00;23.00;;;;;;6228799;28;20487;-60
2023/03/17 15:20:21;;;;;;;6.50;5.87;;;15.00;22.90;;;;;;6228810;28;20467;-60
2023/03/17 15:23:29;;;;;;;5.70;5.20;;;15.00;23.20;;;;;;6228834;28;20448;-60
2023/03/17 15:26:32;;;;;;;6.70;5.40;;;15.00;23.00;;;;;;6228215;28;20543;-61
2023/03/17 15:29:36;;;;;;;6.50;5.30;;;15.10;23.10;;;;;;6237288;28;20747;-60
2023/03/17 15:32:40;;;;;;;7.97;5.60;;;15.20;23.10;;;;;;6252228;28;20458;-61
2023/03/17 15:35:43;;;;;;;8.77;6.47;;;15.10;23.10;;;;;;6252769;28;20477;-60
2023/03/17 15:38:48;;;;;;;7.77;7.07;;;15.10;23.50;;;;;;6252518;28;20564;-62
2023/03/17 15:41:51;;;;;;;18.50;16.60;;;15.10;23.40;;;;;;6252308;28;20467;-61
2023/03/17 15:44:55;;;;;;;8.83;6.03;;;15.10;23.20;;;;;;6252106;28;21006;-60
2023/03/17 15:47:58;;;;;;;6.87;6.03;;;14.80;23.30;;;;;;6252583;28;20482;-61
2023/03/17 15:51:02;;;;;;;6.90;5.47;;;14.70;23.80;;;;;;6252096;28;21309;-60
2023/03/17 15:54:06;;;;;;;7.00;6.00;;;14.60;23.80;;;;;;6252409;28;20477;-60
2023/03/17 15:57:11;;;;;;;8.00;6.10;;;14.60;24.00;;;;;;6251070;28;20825;-60
2023/03/17 16:00:17;;;;;;;7.10;5.30;;;14.40;24.30;;;;;;6252021;28;20489;-60
2023/03/17 16:03:28;;;;;;;7.77;6.00;;;14.30;25.00;;;;;;6242285;28;20478;-60
2023/03/17 16:06:31;;;;;;;7.70;5.80;;;14.30;24.70;;;;;;6227552;28;20480;-60
2023/03/17 16:09:36;;;;;;;7.23;6.37;;;14.30;24.70;;;;;;6227409;28;20476;-60
2023/03/17 16:12:39;;;;;;;12.33;7.10;;;14.20;24.60;;;;;;6227290;28;20946;-60
2023/03/17 16:15:44;;;;;;;6.90;5.97;;;14.10;24.80;;;;;;6227096;28;20479;-60
2023/03/17 16:18:49;;;;;;;7.80;6.23;;;14.00;25.00;;;;;;6226751;28;20480;-60